SBPP/PMG METAR and TAF weather

Enter ICAO airport designator
Station Type Date Time Source
SBPP METAR 2021/01/21 21:00 UTC NOAA

SBPP 212100Z 36004KT 9999 FEW004 SCT015 BKN070 22/21 Q1014 RETS


Station Type Date Time Source
SBPP Decoded METAR 2021/01/21 21:00 UTC NOAA

Ponta Pora Intl , Brazil (SBPP) 22-33S 055-42W
Jan 21, 2021 - 04:00 PM EST / 2021.01.21 2100 UTC
Wind: from the N (360 degrees) at 5 MPH (4 KT):0
Visibility: greater than 7 mile(s):0
Sky conditions: mostly cloudy
Temperature: 71 F (22 C)
Dew Point: 69 F (21 C)
Relative Humidity: 94%
Pressure (altimeter): 29.94 in. Hg (1014 hPa)
ob: SBPP 212100Z 36004KT 9999 FEW004 SCT015 BKN070 22/21 Q1014 RETS
cycle: 21

Station Type Date Time Source
SBPP TAF 2021/01/22 06:15 UTC NOAA

TAF SBPP 220140Z 2206/2306 04008KT 8000 SCT013 BKN017 TN21/2208Z TX26/2216Z PROB30 2206/2211 3000 RA BR SCT005 BKN013
TEMPO 2211/2215 30008KT 5000 SHRA BR SCT005 BKN013 FEW025TCU
TEMPO 2215/2218 21007KT 6000 TSRA BKN012 FEW025CB PROB30 2220/2224 5000 RA BR BKN007
RMK PHH

Example: see airport list